createdAt,value
2023-05-17T00:05:38.152Z,6.05
2023-05-17T00:11:42.671Z,7.63
2023-05-17T00:23:50.580Z,7.85
2023-05-17T00:29:53.027Z,7.00
2023-05-17T00:35:56.538Z,7.90
2023-05-17T00:42:02.713Z,10.73
2023-05-17T00:48:06.762Z,6.22
2023-05-17T00:54:10.573Z,9.40
2023-05-17T01:00:15.162Z,10.30
2023-05-17T01:13:06.608Z,8.73
2023-05-17T01:19:38.007Z,10.60
2023-05-17T01:25:59.072Z,8.18
2023-05-17T01:32:06.596Z,11.48
2023-05-17T01:38:10.880Z,10.40
2023-05-17T01:44:27.415Z,9.80
2023-05-17T01:50:33.635Z,9.23
2023-05-17T01:56:41.581Z,10.88
2023-05-17T02:02:46.680Z,14.63
2023-05-17T02:08:49.809Z,14.52
2023-05-17T02:14:53.050Z,10.82
2023-05-17T02:20:56.994Z,13.35
2023-05-17T02:27:01.835Z,16.27
2023-05-17T02:33:05.297Z,14.23
2023-05-17T02:39:08.997Z,16.27
2023-05-17T02:45:13.016Z,20.60
2023-05-17T02:51:15.992Z,13.75
2023-05-17T02:57:19.327Z,13.82
2023-05-17T03:03:22.315Z,16.63
2023-05-17T03:09:25.353Z,15.15
2023-05-17T03:15:31.209Z,13.93
2023-05-17T03:21:34.251Z,16.73
2023-05-17T03:27:38.050Z,11.20
2023-05-17T03:33:42.299Z,26.37
2023-05-17T03:39:46.071Z,17.10
2023-05-17T03:45:49.890Z,19.77
2023-05-17T03:51:53.892Z,15.07
2023-05-17T03:57:57.422Z,12.60
2023-05-17T04:04:02.114Z,18.02
2023-05-17T04:10:05.998Z,14.77
2023-05-17T04:16:09.834Z,10.33
2023-05-17T04:22:15.765Z,18.83
2023-05-17T04:28:18.662Z,11.27
2023-05-17T04:34:24.309Z,11.48
2023-05-17T04:40:34.623Z,11.38
2023-05-17T04:46:37.945Z,18.65
2023-05-17T04:52:50.331Z,20.02
2023-05-17T04:58:54.198Z,18.55
2023-05-17T05:04:57.979Z,15.17
2023-05-17T05:11:07.918Z,18.37
2023-05-17T05:17:14.418Z,10.77
2023-05-17T05:23:19.158Z,14.18
2023-05-17T05:29:23.202Z,16.58
2023-05-17T05:35:34.224Z,15.00
2023-05-17T05:41:50.821Z,18.52
2023-05-17T05:47:56.362Z,11.07
2023-05-17T05:54:04.203Z,13.63
2023-05-17T06:00:09.230Z,15.65
2023-05-17T06:06:19.907Z,10.82
2023-05-17T06:12:30.683Z,12.70
2023-05-17T06:18:35.765Z,12.32
2023-05-17T06:24:39.130Z,10.77
2023-05-17T06:30:43.166Z,11.70
2023-05-17T06:36:47.163Z,9.68
2023-05-17T06:42:51.616Z,8.68
2023-05-17T06:48:55.106Z,10.80
2023-05-17T06:54:59.175Z,9.57
2023-05-17T07:01:03.263Z,10.17
2023-05-17T07:07:06.918Z,10.88
2023-05-17T07:13:13.025Z,12.13
2023-05-17T07:19:17.618Z,10.65
2023-05-17T07:25:22.695Z,10.35
2023-05-17T07:31:27.323Z,12.82
2023-05-17T07:37:30.979Z,8.88
2023-05-17T07:43:33.652Z,7.87
2023-05-17T07:49:36.861Z,11.15
2023-05-17T07:55:47.331Z,7.30
2023-05-17T08:01:53.376Z,12.63
2023-05-17T08:08:03.000Z,8.05
2023-05-17T08:14:07.126Z,8.43
2023-05-17T08:20:10.981Z,11.63
2023-05-17T08:26:14.983Z,9.27
2023-05-17T08:32:17.617Z,10.00
2023-05-17T08:38:21.095Z,8.35
2023-05-17T08:44:25.147Z,9.95
2023-05-17T08:50:34.296Z,10.98
2023-05-17T08:56:40.604Z,8.90
2023-05-17T09:02:43.414Z,8.65
2023-05-17T09:08:48.475Z,10.05
2023-05-17T09:14:52.478Z,9.18
2023-05-17T09:20:55.055Z,7.10
2023-05-17T09:27:04.499Z,12.63
2023-05-17T09:33:10.369Z,13.80
2023-05-17T09:39:16.374Z,9.48
2023-05-17T09:45:26.938Z,9.10
2023-05-17T09:51:34.783Z,6.50
2023-05-17T09:57:42.640Z,11.10
2023-05-17T10:03:46.581Z,7.95
2023-05-17T10:09:50.613Z,10.57
2023-05-17T10:15:56.247Z,8.95
2023-05-17T10:22:18.258Z,8.63
2023-05-17T10:28:24.443Z,10.63
2023-05-17T10:34:28.490Z,9.70
2023-05-17T10:40:32.486Z,9.68
2023-05-17T10:46:43.359Z,8.70
2023-05-17T10:52:50.415Z,12.05
2023-05-17T10:59:15.711Z,7.97
2023-05-17T11:05:28.574Z,8.15
2023-05-17T11:11:32.109Z,9.70
2023-05-17T11:17:44.427Z,10.13
2023-05-17T11:23:48.488Z,11.50
2023-05-17T11:29:52.253Z,10.50
2023-05-17T11:35:56.426Z,10.25
2023-05-17T11:42:05.708Z,8.63
2023-05-17T11:48:09.594Z,7.75
2023-05-17T11:54:16.143Z,7.82
2023-05-17T12:00:30.461Z,11.93
2023-05-17T12:12:39.691Z,8.70
2023-05-17T12:18:45.880Z,8.70
2023-05-17T12:24:49.833Z,9.35
2023-05-17T12:31:04.834Z,7.30
2023-05-17T12:37:11.819Z,7.03
2023-05-17T12:43:15.771Z,7.65
2023-05-17T12:49:19.729Z,10.80
2023-05-17T12:55:23.710Z,8.80
2023-05-17T13:01:26.885Z,7.45
2023-05-17T13:07:30.701Z,7.57
2023-05-17T13:13:38.312Z,8.07
2023-05-17T13:19:42.455Z,7.60
2023-05-17T13:31:49.430Z,8.55
2023-05-17T13:37:52.425Z,11.15
2023-05-17T13:43:56.133Z,5.35
2023-05-17T13:50:02.613Z,7.80
2023-05-17T13:56:07.023Z,6.03
2023-05-17T14:02:11.707Z,8.77
2023-05-17T14:08:14.838Z,7.28
2023-05-17T14:14:18.832Z,10.45
2023-05-17T14:20:22.328Z,6.80
2023-05-17T14:26:24.635Z,6.83
2023-05-17T14:32:27.880Z,8.73
2023-05-17T14:38:31.465Z,9.27
2023-05-17T14:44:36.224Z,7.20
2023-05-17T14:50:41.440Z,11.45
2023-05-17T14:56:46.912Z,8.48
2023-05-17T15:02:51.082Z,5.13
2023-05-17T15:08:55.220Z,9.07
2023-05-17T15:14:58.840Z,6.75
2023-05-17T15:21:03.503Z,6.18
2023-05-17T15:27:06.933Z,5.75
2023-05-17T15:33:10.783Z,6.40
2023-05-17T15:39:17.737Z,5.20
2023-05-17T15:45:24.310Z,6.15
2023-05-17T15:51:35.852Z,6.30
2023-05-17T15:57:39.602Z,5.65
2023-05-17T16:03:43.561Z,4.07
2023-05-17T16:09:46.997Z,6.18
2023-05-17T16:15:51.009Z,7.77
2023-05-17T16:21:55.521Z,7.05
2023-05-17T16:27:59.133Z,5.88
2023-05-17T16:34:02.838Z,6.63
2023-05-17T16:40:06.931Z,10.43
2023-05-17T16:46:10.833Z,11.48
2023-05-17T16:52:14.176Z,7.60
2023-05-17T16:58:16.730Z,6.63
2023-05-17T17:04:20.126Z,5.05
2023-05-17T17:10:23.833Z,10.13
2023-05-17T17:16:32.818Z,7.30
2023-05-17T17:22:39.129Z,6.95
2023-05-17T17:28:42.345Z,7.43
2023-05-17T17:34:45.411Z,5.97
2023-05-17T17:40:49.652Z,8.93
2023-05-17T17:46:53.214Z,7.55
2023-05-17T17:52:58.736Z,7.97
2023-05-17T17:59:01.504Z,8.90
2023-05-17T18:05:05.117Z,9.85
2023-05-17T18:11:09.134Z,10.15
2023-05-17T18:17:12.735Z,10.85
2023-05-17T18:23:16.852Z,10.13
2023-05-17T18:29:20.378Z,10.68
2023-05-17T18:35:24.529Z,9.03
2023-05-17T18:41:28.630Z,8.68
2023-05-17T18:47:31.447Z,13.07
2023-05-17T18:53:37.061Z,8.15
2023-05-17T18:59:40.749Z,8.65
2023-05-17T19:05:43.980Z,9.17
2023-05-17T19:11:46.827Z,11.40
2023-05-17T19:17:49.586Z,11.10
2023-05-17T19:23:52.887Z,8.25
2023-05-17T19:29:55.655Z,8.48
2023-05-17T19:35:59.226Z,9.82
2023-05-17T19:42:01.501Z,9.73
2023-05-17T19:48:07.777Z,5.88
2023-05-17T19:54:11.376Z,7.70
2023-05-17T20:00:19.505Z,9.50
2023-05-17T20:06:23.141Z,9.35
2023-05-17T20:12:31.694Z,9.70
2023-05-17T20:18:33.802Z,4.82
2023-05-17T20:24:37.094Z,9.70
2023-05-17T20:30:46.451Z,6.80
2023-05-17T20:36:49.104Z,7.60
2023-05-17T20:42:54.174Z,6.88
2023-05-17T20:48:58.608Z,5.85
2023-05-17T20:55:02.223Z,10.98
2023-05-17T21:01:10.551Z,7.38
2023-05-17T21:07:14.151Z,8.18
2023-05-17T21:13:16.668Z,6.40
2023-05-17T21:19:20.481Z,8.73
2023-05-17T21:25:23.913Z,7.97
2023-05-17T21:31:34.433Z,7.05
2023-05-17T21:37:40.798Z,7.80
2023-05-17T21:43:44.415Z,8.18
2023-05-17T21:49:54.658Z,11.30
2023-05-17T21:56:02.636Z,5.97
2023-05-17T22:02:09.629Z,8.63
2023-05-17T22:08:12.400Z,10.52
2023-05-17T22:14:15.118Z,10.05
2023-05-17T22:20:20.362Z,5.88
2023-05-17T22:26:23.198Z,8.48
2023-05-17T22:32:28.481Z,6.88
2023-05-17T22:38:31.304Z,7.63
2023-05-17T22:44:35.827Z,11.20
2023-05-17T22:50:43.748Z,10.88
2023-05-17T22:56:46.989Z,7.00
2023-05-17T23:02:50.519Z,7.82
2023-05-17T23:08:53.841Z,7.50
2023-05-17T23:14:58.164Z,11.05
2023-05-17T23:21:00.784Z,6.35
2023-05-17T23:27:03.795Z,6.82
2023-05-17T23:33:06.531Z,6.07
2023-05-17T23:39:09.470Z,7.07
2023-05-17T23:45:12.231Z,10.60
2023-05-17T23:51:14.635Z,10.63
2023-05-17T23:57:18.017Z,5.32
